CheckWX is a tool to help pilots better visualize weather data.  It is not intended as a substitute for an official pre-flight weather briefing.

21:39:40 UTC

KHII METAR
Lake Havasu City Airport
Lake Havasu City, Arizona, USA
Current

30 mins ago

KHII 232110Z AUTO 22004KT 10SM CLR 13/M03 A3028 RMK AO2
Observed
Feb-23 @ 21:10 UTC
Wind
  • 220° at 4 KTS
Visibility
10 SM
Flight Rules
VFR
Cloud Levels
  • Clear skies
Temperature
13°C / 55°F
Dewpoint
-3°C / 27°F
Humidity
33%
Altimeter
30.28" Hg
Pressure
1025.42 hPa
Previous

50 mins ago

KHII 232050Z AUTO 00000KT 10SM CLR 13/M03 A3029 RMK AO2
Observed
Feb-23 @ 20:50 UTC
Visibility
10 SM
Flight Rules
VFR
Cloud Levels
  • Clear skies
Temperature
13°C / 55°F
Dewpoint
-3°C / 27°F
Humidity
33%
Altimeter
30.29" Hg
Pressure
1025.72 hPa
Previous

1 hour ago

KHII 232030Z AUTO 00000KT 10SM CLR 13/M02 A3030 RMK AO2
Observed
Feb-23 @ 20:30 UTC
Visibility
10 SM
Flight Rules
VFR
Cloud Levels
  • Clear skies
Temperature
13°C / 55°F
Dewpoint
-2°C / 28°F
Humidity
36%
Altimeter
30.3" Hg
Pressure
1026.12 hPa